To NAV CANADA Home Page Login to a new session Search on AWWS site Feedback and Comments Disclaimer Vers la page française équivalente Tips FAQ What's new on the site To the Forecasts and Observations / NOTAM section To "File a Flight Plan" website Publications and other links Update of the User's profile FIC Telephone Numbers My Weather Data Folder Route Weather Data Regional Weather Data Local Weather Data To the Forecasts and Observations / NOTAM section
Request Generated 08/25/2016 at 02:38:23 UTC . Weather information available at that time is displayed.

METAR/TAF

FREDERICTON INTL/NB    (show WxCam)

METAR CYFC 250200Z AUTO 18008KT 9SM CLR 20/17 A3005 RMK SLP177
DENSITY ALT 400FT=
METAR CYFC 250100Z AUTO 19007KT 9SM CLR 21/18 A3006 RMK SLP179
DENSITY ALT 600FT=
METAR CYFC 250000Z AUTO 18006KT 9SM CLR 22/19 A3006 RMK SLP179
DENSITY ALT 700FT=

TAF CYFC 242338Z 2500/2512 19005KT P6SM SKC
BECMG 2501/2503 20008KT
RMK FCST BASED ON AUTO OBS. NXT FCST BY 250600Z=
Your time UTC time
Weather data provided by Environment Canada and NAV CANADA